createdAt,value
2018-09-03T00:02:07.049Z,6.37
2018-09-03T00:04:36.422Z,4.37
2018-09-03T00:07:06.507Z,7.57
2018-09-03T00:09:41.466Z,5.17
2018-09-03T00:12:11.998Z,6.33
2018-09-03T00:14:41.554Z,5.07
2018-09-03T00:17:10.936Z,4.23
2018-09-03T00:19:40.761Z,5.60
2018-09-03T00:22:10.149Z,5.63
2018-09-03T00:24:39.580Z,4.30
2018-09-03T00:27:09.135Z,6.30
2018-09-03T00:29:38.525Z,3.87
2018-09-03T00:32:13.466Z,4.00
2018-09-03T00:34:47.991Z,4.70
2018-09-03T00:37:22.651Z,6.00
2018-09-03T00:39:57.268Z,3.70
2018-09-03T00:42:31.982Z,3.83
2018-09-03T00:45:06.709Z,6.00
2018-09-03T00:47:36.290Z,6.07
2018-09-03T00:50:06.768Z,4.60
2018-09-03T00:52:36.106Z,4.87
2018-09-03T00:55:06.002Z,5.93
2018-09-03T00:57:35.382Z,3.23
2018-09-03T01:00:05.006Z,4.53
2018-09-03T01:02:34.673Z,4.17
2018-09-03T01:05:04.014Z,3.47
2018-09-03T01:07:33.366Z,5.80
2018-09-03T01:10:02.824Z,5.70
2018-09-03T01:12:32.150Z,4.80
2018-09-03T01:15:01.487Z,6.03
2018-09-03T01:17:30.835Z,3.23
2018-09-03T01:20:00.225Z,3.03
2018-09-03T01:22:29.567Z,6.03
2018-09-03T01:24:59.239Z,6.73
2018-09-03T01:27:28.558Z,4.47
2018-09-03T01:29:57.982Z,4.70
2018-09-03T01:32:27.322Z,4.87
2018-09-03T01:34:56.678Z,4.13
2018-09-03T01:37:26.036Z,4.47
2018-09-03T01:39:55.840Z,4.13
2018-09-03T01:42:25.199Z,4.67
2018-09-03T01:44:54.551Z,4.23
2018-09-03T01:47:24.525Z,5.10
2018-09-03T01:49:53.918Z,3.57
2018-09-03T01:52:23.259Z,5.53
2018-09-03T01:54:52.589Z,4.73
2018-09-03T01:57:21.961Z,4.97
2018-09-03T01:59:51.342Z,3.37
2018-09-03T02:02:21.962Z,4.77
2018-09-03T02:04:51.314Z,6.03
2018-09-03T02:07:20.666Z,4.13
2018-09-03T02:09:50.067Z,4.67
2018-09-03T02:12:19.407Z,5.53
2018-09-03T02:14:48.730Z,6.27
2018-09-03T02:17:18.153Z,8.47
2018-09-03T02:19:47.534Z,4.93
2018-09-03T02:22:17.153Z,6.23
2018-09-03T02:24:46.706Z,3.63
2018-09-03T02:27:16.050Z,8.37
2018-09-03T02:29:46.033Z,6.13
2018-09-03T02:32:15.426Z,4.07
2018-09-03T02:34:44.754Z,3.63
2018-09-03T02:37:16.121Z,5.63
2018-09-03T02:39:45.453Z,4.70
2018-09-03T02:42:14.823Z,6.07
2018-09-03T02:44:44.519Z,4.57
2018-09-03T02:47:13.871Z,3.87
2018-09-03T02:49:43.212Z,4.17
2018-09-03T02:52:12.606Z,4.97
2018-09-03T02:54:41.962Z,6.83
2018-09-03T02:57:11.298Z,3.63
2018-09-03T02:59:41.173Z,5.33
2018-09-03T03:02:10.582Z,8.80
2018-09-03T03:04:39.987Z,5.03
2018-09-03T03:07:09.339Z,6.07
2018-09-03T03:09:38.673Z,4.20
2018-09-03T03:14:41.555Z,4.33
2018-09-03T03:17:10.924Z,8.10
2018-09-03T03:19:43.865Z,5.07
2018-09-03T03:22:13.243Z,4.70
2018-09-03T03:24:43.423Z,5.40
2018-09-03T03:27:12.897Z,4.80
2018-09-03T03:29:42.405Z,6.07
2018-09-03T03:32:11.793Z,4.53
2018-09-03T03:34:41.137Z,4.77
2018-09-03T03:37:10.479Z,5.83
2018-09-03T03:39:40.257Z,5.03
2018-09-03T03:42:09.675Z,7.17
2018-09-03T03:44:39.003Z,5.70
2018-09-03T03:47:08.375Z,6.37
2018-09-03T03:49:37.750Z,7.13
2018-09-03T03:52:07.634Z,4.30
2018-09-03T03:54:37.229Z,4.73
2018-09-03T03:57:06.587Z,4.43
2018-09-03T03:59:36.420Z,5.53
2018-09-03T04:02:06.227Z,6.33
2018-09-03T04:04:35.563Z,7.43
2018-09-03T04:07:04.930Z,6.77
2018-09-03T04:09:34.290Z,5.27
2018-09-03T04:12:03.669Z,8.37
2018-09-03T04:14:33.342Z,4.40
2018-09-03T04:17:02.679Z,6.23
2018-09-03T04:19:32.038Z,6.23
2018-09-03T04:22:01.889Z,4.50
2018-09-03T04:24:31.287Z,8.13
2018-09-03T04:27:00.603Z,6.80
2018-09-03T04:29:29.969Z,8.23
2018-09-03T04:31:59.349Z,5.07
2018-09-03T04:34:28.665Z,8.43
2018-09-03T04:36:58.014Z,6.30
2018-09-03T04:39:27.354Z,4.40
2018-09-03T04:41:56.736Z,4.80
2018-09-03T04:44:26.110Z,7.50
2018-09-03T04:46:55.478Z,6.97
2018-09-03T04:49:24.807Z,6.23
2018-09-03T04:51:54.178Z,6.97
2018-09-03T04:54:23.754Z,4.90
2018-09-03T04:56:53.091Z,5.37
2018-09-03T04:59:22.674Z,4.40
2018-09-03T05:01:52.066Z,6.60
2018-09-03T05:04:21.401Z,5.07
2018-09-03T05:06:51.200Z,6.30
2018-09-03T05:09:20.550Z,7.93
2018-09-03T05:11:49.976Z,6.50
2018-09-03T05:14:19.616Z,6.33
2018-09-03T05:16:48.962Z,6.47
2018-09-03T05:19:18.283Z,6.10
2018-09-03T05:21:47.916Z,5.67
2018-09-03T05:24:17.295Z,7.93
2018-09-03T05:26:46.657Z,6.43
2018-09-03T05:29:19.911Z,7.83
2018-09-03T05:31:49.246Z,6.83
2018-09-03T05:34:18.854Z,4.93
2018-09-03T05:36:48.189Z,7.10
2018-09-03T05:39:17.526Z,6.03
2018-09-03T05:41:46.899Z,9.97
2018-09-03T05:44:16.295Z,10.13
2018-09-03T05:46:45.621Z,6.97
2018-09-03T05:49:15.239Z,10.70
2018-09-03T05:51:44.617Z,9.00
2018-09-03T05:54:13.989Z,7.60
2018-09-03T05:56:46.916Z,8.23
2018-09-03T05:59:16.337Z,7.27
2018-09-03T06:01:45.719Z,6.83
2018-09-03T06:04:15.149Z,6.03
2018-09-03T06:06:44.483Z,5.50
2018-09-03T06:09:14.257Z,6.83
2018-09-03T06:11:43.613Z,6.73
2018-09-03T06:14:12.991Z,7.40
2018-09-03T06:16:45.518Z,6.97
2018-09-03T06:19:15.011Z,8.07
2018-09-03T06:21:44.351Z,7.17
2018-09-03T06:24:13.976Z,8.63
2018-09-03T06:26:43.400Z,10.17
2018-09-03T06:29:13.403Z,11.47
2018-09-03T06:31:43.730Z,6.70
2018-09-03T06:34:13.117Z,11.57
2018-09-03T06:36:42.741Z,7.80
2018-09-03T06:39:12.102Z,9.23
2018-09-03T06:41:41.574Z,8.87
2018-09-03T06:44:14.154Z,10.20
2018-09-03T06:46:43.567Z,10.13
2018-09-03T06:49:16.861Z,12.17
2018-09-03T06:51:46.189Z,8.23
2018-09-03T06:54:15.592Z,8.40
2018-09-03T06:56:45.035Z,11.63
2018-09-03T06:59:14.367Z,8.03
2018-09-03T07:01:43.692Z,9.93
2018-09-03T07:04:13.309Z,9.00
2018-09-03T07:06:42.728Z,8.80
2018-09-03T07:09:13.972Z,9.90
2018-09-03T07:11:43.719Z,9.50
2018-09-03T07:14:13.344Z,13.00
2018-09-03T07:16:42.820Z,9.67
2018-09-03T07:19:12.418Z,10.63
2018-09-03T07:21:41.905Z,8.60
2018-09-03T07:24:15.179Z,9.10
2018-09-03T07:26:44.729Z,12.77
2018-09-03T07:29:18.773Z,10.60
2018-09-03T07:31:48.325Z,13.47
2018-09-03T07:34:18.036Z,12.83
2018-09-03T07:36:47.480Z,11.00
2018-09-03T07:39:17.068Z,10.83
2018-09-03T07:41:46.448Z,12.00
2018-09-03T07:44:16.229Z,9.17
2018-09-03T07:46:45.509Z,12.63
2018-09-03T07:49:14.837Z,11.87
2018-09-03T07:51:44.312Z,9.73
2018-09-03T07:54:13.796Z,9.00
2018-09-03T07:56:43.351Z,9.20
2018-09-03T07:59:13.081Z,9.53
2018-09-03T08:01:42.644Z,11.00
2018-09-03T08:04:12.221Z,9.50
2018-09-03T08:06:41.886Z,12.53
2018-09-03T08:09:12.278Z,12.00
2018-09-03T08:11:42.096Z,10.77
2018-09-03T08:14:11.601Z,10.20
2018-09-03T08:16:41.073Z,10.77
2018-09-03T08:19:10.569Z,10.23
2018-09-03T08:21:39.992Z,11.63
2018-09-03T08:24:09.442Z,11.97
2018-09-03T08:26:38.838Z,13.40
2018-09-03T08:29:08.154Z,13.27
2018-09-03T08:31:37.488Z,13.03
2018-09-03T08:34:06.891Z,10.03
2018-09-03T08:36:36.338Z,12.07
2018-09-03T08:39:06.838Z,12.53
2018-09-03T08:41:36.358Z,10.37
2018-09-03T08:44:05.730Z,12.53
2018-09-03T08:46:38.741Z,12.73
2018-09-03T08:49:08.237Z,12.20
2018-09-03T08:51:37.574Z,12.63
2018-09-03T08:54:06.936Z,13.37
2018-09-03T08:56:36.415Z,16.13
2018-09-03T08:59:05.746Z,10.50
2018-09-03T09:01:35.075Z,13.87
2018-09-03T09:04:04.633Z,11.97
2018-09-03T09:06:34.209Z,12.97
2018-09-03T09:09:03.717Z,13.83
2018-09-03T09:11:33.048Z,9.57
2018-09-03T09:14:02.419Z,11.70
2018-09-03T09:16:31.933Z,14.20
2018-09-03T09:19:01.312Z,12.13
2018-09-03T09:21:30.652Z,13.97
2018-09-03T09:24:00.022Z,14.60
2018-09-03T09:26:29.400Z,16.07
2018-09-03T09:28:58.726Z,12.40
2018-09-03T09:31:28.077Z,12.47
2018-09-03T09:33:57.406Z,11.77
2018-09-03T09:36:26.799Z,14.57
2018-09-03T09:38:56.134Z,13.87
2018-09-03T09:41:25.464Z,11.73
2018-09-03T09:43:55.058Z,13.17
2018-09-03T09:46:24.448Z,13.97
2018-09-03T09:48:53.765Z,12.27
2018-09-03T09:51:23.554Z,11.13
2018-09-03T09:53:52.926Z,12.37
2018-09-03T09:56:22.653Z,11.00
2018-09-03T09:58:52.001Z,14.27
2018-09-03T10:01:26.713Z,12.47
2018-09-03T10:03:56.705Z,13.80
2018-09-03T10:06:26.072Z,15.33
2018-09-03T10:08:55.496Z,13.83
2018-09-03T10:11:24.877Z,12.77
2018-09-03T10:13:54.237Z,14.70
2018-09-03T10:16:23.593Z,13.83
2018-09-03T10:18:52.930Z,14.20
2018-09-03T10:21:22.357Z,15.47
2018-09-03T10:23:51.706Z,16.27
2018-09-03T10:26:21.123Z,14.80
2018-09-03T10:28:50.452Z,12.27
2018-09-03T10:31:19.895Z,13.73
2018-09-03T10:33:49.330Z,12.63
2018-09-03T10:36:18.755Z,15.63
2018-09-03T10:38:48.141Z,14.57
2018-09-03T10:41:17.482Z,14.73
2018-09-03T10:43:46.830Z,12.43
2018-09-03T10:46:16.221Z,13.13
2018-09-03T10:48:45.565Z,16.07
2018-09-03T10:51:14.910Z,15.17
2018-09-03T10:53:44.277Z,13.80
2018-09-03T10:56:15.023Z,16.53
2018-09-03T10:58:44.778Z,12.80
2018-09-03T11:01:14.622Z,11.63
2018-09-03T11:03:43.951Z,14.20
2018-09-03T11:06:13.327Z,15.17
2018-09-03T11:08:49.526Z,10.47
2018-09-03T11:11:18.744Z,15.13
2018-09-03T11:13:48.064Z,14.33
2018-09-03T11:16:17.462Z,13.27
2018-09-03T11:18:46.852Z,15.30
2018-09-03T11:21:16.506Z,11.90
2018-09-03T11:23:45.795Z,14.93
2018-09-03T11:26:15.152Z,14.00
2018-09-03T11:28:44.528Z,13.73
2018-09-03T11:31:20.577Z,11.53
2018-09-03T11:33:49.903Z,10.53
2018-09-03T11:36:19.253Z,12.53
2018-09-03T11:38:48.649Z,9.53
2018-09-03T11:41:17.999Z,11.53
2018-09-03T11:43:47.317Z,11.70
2018-09-03T11:46:16.689Z,11.17
2018-09-03T11:48:46.313Z,11.63
2018-09-03T11:51:15.637Z,10.03
2018-09-03T11:53:44.990Z,14.60
2018-09-03T11:56:14.340Z,10.87
2018-09-03T11:58:43.733Z,10.30
2018-09-03T12:01:13.063Z,10.23
2018-09-03T12:03:42.373Z,12.90
2018-09-03T12:06:11.733Z,8.83
2018-09-03T12:08:41.117Z,9.80
2018-09-03T12:11:10.442Z,11.00
2018-09-03T12:13:39.769Z,9.00
2018-09-03T12:16:16.137Z,12.90
2018-09-03T12:18:45.805Z,8.53
2018-09-03T12:21:15.651Z,13.07
2018-09-03T12:23:45.424Z,12.60
2018-09-03T12:26:14.769Z,12.43
2018-09-03T12:28:44.371Z,9.00
2018-09-03T12:31:13.743Z,9.37
2018-09-03T12:33:43.110Z,11.50
2018-09-03T12:36:12.549Z,11.43
2018-09-03T12:38:41.942Z,11.10
2018-09-03T12:41:11.305Z,9.50
2018-09-03T12:43:40.961Z,9.37
2018-09-03T12:46:10.322Z,13.70
2018-09-03T12:48:39.687Z,11.70
2018-09-03T12:51:09.715Z,8.97
2018-09-03T12:53:38.970Z,9.10
2018-09-03T12:56:08.431Z,10.00
2018-09-03T12:58:38.523Z,11.13
2018-09-03T13:01:07.951Z,14.43
2018-09-03T13:03:37.271Z,11.13
2018-09-03T13:06:06.666Z,10.47
2018-09-03T13:08:36.049Z,11.90
2018-09-03T13:11:05.410Z,8.57
2018-09-03T13:13:34.737Z,9.77
2018-09-03T13:16:04.139Z,12.97
2018-09-03T13:18:33.748Z,12.43
2018-09-03T13:21:03.486Z,12.93
2018-09-03T13:23:32.814Z,10.27
2018-09-03T13:26:02.202Z,8.83
2018-09-03T13:28:31.814Z,11.67
2018-09-03T13:31:01.148Z,12.27
2018-09-03T13:33:30.481Z,11.50
2018-09-03T13:35:59.873Z,12.90
2018-09-03T13:38:29.250Z,12.50
2018-09-03T13:40:58.622Z,12.10
2018-09-03T13:43:27.967Z,12.33
2018-09-03T13:45:57.358Z,12.07
2018-09-03T13:48:26.748Z,10.13
2018-09-03T13:50:56.073Z,11.33
2018-09-03T13:53:25.418Z,11.57
2018-09-03T13:55:54.785Z,9.47
2018-09-03T13:58:24.170Z,13.70
2018-09-03T14:00:53.506Z,11.00
2018-09-03T14:03:22.870Z,9.60
2018-09-03T14:05:52.245Z,14.47
2018-09-03T14:08:21.699Z,15.63
2018-09-03T14:10:51.068Z,11.27
2018-09-03T14:13:20.408Z,16.27
2018-09-03T14:15:49.778Z,13.77
2018-09-03T14:18:19.146Z,13.90
2018-09-03T14:20:48.522Z,11.93
2018-09-03T14:23:17.865Z,12.43
2018-09-03T14:25:47.216Z,12.30
2018-09-03T14:28:16.539Z,13.63
2018-09-03T14:30:45.930Z,16.20
2018-09-03T14:33:16.840Z,16.40
2018-09-03T14:35:46.205Z,14.50
2018-09-03T14:38:15.520Z,13.97
2018-09-03T14:40:45.282Z,12.97
2018-09-03T14:43:14.593Z,12.50
2018-09-03T14:45:43.920Z,14.53
2018-09-03T14:48:13.364Z,15.60
2018-09-03T14:50:42.737Z,14.27
2018-09-03T14:53:12.301Z,14.47
2018-09-03T14:55:41.621Z,15.93
2018-09-03T14:58:10.990Z,15.40
2018-09-03T15:00:40.367Z,18.33
2018-09-03T15:03:09.686Z,15.93
2018-09-03T15:05:39.006Z,19.57
2018-09-03T15:08:08.471Z,14.20
2018-09-03T15:10:37.811Z,11.93
2018-09-03T15:13:07.182Z,10.83
2018-09-03T15:15:36.749Z,14.20
2018-09-03T15:18:06.150Z,11.90
2018-09-03T15:20:35.599Z,16.17
2018-09-03T15:23:04.883Z,11.13
2018-09-03T15:25:34.464Z,10.30
2018-09-03T15:28:03.824Z,12.63
2018-09-03T15:30:33.214Z,18.27
2018-09-03T15:33:02.576Z,10.73
2018-09-03T15:35:31.972Z,10.23
2018-09-03T15:38:01.293Z,11.80
2018-09-03T15:40:30.706Z,14.07
2018-09-03T15:43:00.166Z,15.07
2018-09-03T15:45:29.485Z,10.07
2018-09-03T15:47:58.899Z,10.00
2018-09-03T15:50:28.572Z,11.47
2018-09-03T15:53:00.106Z,10.93
2018-09-03T15:55:29.541Z,10.93
2018-09-03T15:57:58.974Z,10.83
2018-09-03T16:00:32.026Z,12.40
2018-09-03T16:03:01.449Z,12.73
2018-09-03T16:05:33.078Z,12.20
2018-09-03T16:08:09.158Z,10.73
2018-09-03T16:10:39.383Z,13.57
2018-09-03T16:13:08.774Z,13.93
2018-09-03T16:15:38.498Z,15.13
2018-09-03T16:18:07.966Z,10.30
2018-09-03T16:20:37.446Z,15.53
2018-09-03T16:23:09.067Z,15.47
2018-09-03T16:25:38.518Z,12.67
2018-09-03T16:28:07.981Z,13.33
2018-09-03T16:30:45.663Z,13.57
2018-09-03T16:33:19.708Z,13.60
2018-09-03T16:35:49.169Z,16.47
2018-09-03T16:38:20.994Z,15.63
2018-09-03T16:40:50.384Z,12.90
2018-09-03T16:43:21.789Z,13.10
2018-09-03T16:45:52.058Z,16.33
2018-09-03T16:48:24.822Z,15.80
2018-09-03T16:50:56.726Z,11.83
2018-09-03T16:53:33.474Z,12.50
2018-09-03T16:56:02.922Z,14.40
2018-09-03T16:58:37.481Z,11.27
2018-09-03T17:01:07.066Z,12.63
2018-09-03T17:03:36.949Z,12.83
2018-09-03T17:06:08.278Z,13.00
2018-09-03T17:08:38.430Z,10.07
2018-09-03T17:11:09.409Z,14.67
2018-09-03T17:13:38.970Z,11.57
2018-09-03T17:16:08.487Z,13.20
2018-09-03T17:18:39.917Z,11.80
2018-09-03T17:21:09.375Z,11.63
2018-09-03T17:23:42.358Z,12.87
2018-09-03T17:26:11.918Z,14.00
2018-09-03T17:28:41.389Z,10.60
2018-09-03T17:31:10.874Z,13.60
2018-09-03T17:33:40.382Z,14.87
2018-09-03T17:36:10.238Z,12.77
2018-09-03T17:38:39.646Z,12.80
2018-09-03T17:41:09.054Z,13.07
2018-09-03T17:43:40.234Z,10.90
2018-09-03T17:46:09.718Z,13.53
2018-09-03T17:48:39.230Z,11.37
2018-09-03T17:51:12.221Z,12.57
2018-09-03T17:53:41.679Z,16.00
2018-09-03T17:56:11.901Z,11.17
2018-09-03T17:58:41.346Z,13.07
2018-09-03T18:01:10.869Z,15.60
2018-09-03T18:03:42.957Z,11.53
2018-09-03T18:06:12.374Z,11.43
2018-09-03T18:08:43.895Z,12.17
2018-09-03T18:11:13.293Z,12.47
2018-09-03T18:13:42.714Z,11.77
2018-09-03T18:16:14.750Z,10.87
2018-09-03T18:18:44.130Z,13.67
2018-09-03T18:21:15.048Z,13.67
2018-09-03T18:23:47.121Z,16.97
2018-09-03T18:26:16.506Z,13.30
2018-09-03T18:28:46.831Z,14.87
2018-09-03T18:31:17.025Z,13.50
2018-09-03T18:33:46.546Z,13.90
2018-09-03T18:36:19.296Z,11.70
2018-09-03T18:38:48.846Z,14.43
2018-09-03T18:41:20.139Z,14.10
2018-09-03T18:43:49.638Z,17.23
2018-09-03T18:46:19.170Z,14.03
2018-09-03T18:48:51.245Z,13.63
2018-09-03T18:51:20.696Z,14.33
2018-09-03T18:53:54.233Z,17.10
2018-09-03T18:56:23.601Z,16.40
2018-09-03T18:58:54.694Z,13.50
2018-09-03T19:01:24.437Z,13.37
2018-09-03T19:03:53.877Z,15.60
2018-09-03T19:06:27.002Z,14.57
2018-09-03T19:08:56.434Z,13.30
2018-09-03T19:11:26.547Z,16.20
2018-09-03T19:13:57.051Z,13.83
2018-09-03T19:16:26.454Z,15.50
2018-09-03T19:18:58.725Z,15.20
2018-09-03T19:21:28.129Z,14.90
2018-09-03T19:24:02.128Z,15.90
2018-09-03T19:26:31.518Z,18.30
2018-09-03T19:29:00.927Z,13.17
2018-09-03T19:31:33.069Z,15.63
2018-09-03T19:34:02.499Z,14.97
2018-09-03T19:36:37.017Z,15.87
2018-09-03T19:39:07.117Z,15.20
2018-09-03T19:41:38.773Z,17.23
2018-09-03T19:44:08.233Z,15.73
2018-09-03T19:46:37.616Z,18.53
2018-09-03T19:49:09.362Z,14.83
2018-09-03T19:51:38.748Z,16.30
2018-09-03T19:54:11.224Z,17.03
2018-09-03T19:56:40.557Z,19.80
2018-09-03T19:59:12.388Z,19.17
2018-09-03T20:01:42.429Z,19.60
2018-09-03T20:04:12.679Z,23.40
2018-09-03T20:06:45.872Z,16.17
2018-09-03T20:09:16.086Z,19.07
2018-09-03T20:11:49.722Z,20.30
2018-09-03T20:14:20.397Z,21.40
2018-09-03T20:16:56.416Z,18.13
2018-09-03T20:19:31.297Z,21.93
2018-09-03T20:22:01.481Z,20.00
2018-09-03T20:24:33.841Z,19.77
2018-09-03T20:27:05.439Z,26.40
2018-09-03T20:29:37.465Z,19.67
2018-09-03T20:32:06.869Z,20.73
2018-09-03T20:34:36.510Z,22.03
2018-09-03T20:37:09.836Z,21.30
2018-09-03T20:39:40.563Z,23.93
2018-09-03T20:42:45.141Z,20.60
2018-09-03T20:45:14.552Z,21.17
2018-09-03T20:47:44.317Z,26.00
2018-09-03T20:50:17.434Z,20.70
2018-09-03T20:52:50.752Z,28.70
2018-09-03T20:55:20.157Z,25.07
2018-09-03T20:57:49.484Z,24.67
2018-09-03T21:00:20.493Z,23.87
2018-09-03T21:02:49.829Z,24.27
2018-09-03T21:05:19.513Z,27.47
2018-09-03T21:07:48.869Z,26.30
2018-09-03T21:10:18.209Z,23.23
2018-09-03T21:12:47.581Z,27.27
2018-09-03T21:15:17.009Z,22.87
2018-09-03T21:17:46.324Z,26.67
2018-09-03T21:20:20.100Z,25.57
2018-09-03T21:22:49.494Z,23.87
2018-09-03T21:25:20.082Z,26.20
2018-09-03T21:27:49.501Z,27.03
2018-09-03T21:30:18.898Z,27.13
2018-09-03T21:32:51.030Z,24.50
2018-09-03T21:35:20.445Z,29.47
2018-09-03T21:37:50.953Z,27.23
2018-09-03T21:40:20.379Z,32.63
2018-09-03T21:42:49.777Z,27.70
2018-09-03T21:45:19.446Z,24.57
2018-09-03T21:47:48.866Z,28.37
2018-09-03T21:50:18.229Z,28.37
2018-09-03T21:52:51.118Z,32.83
2018-09-03T21:55:20.583Z,25.13
2018-09-03T21:57:51.973Z,28.83
2018-09-03T22:00:21.462Z,27.00
2018-09-03T22:02:50.853Z,26.53
2018-09-03T22:05:22.633Z,29.23
2018-09-03T22:07:52.034Z,25.90
2018-09-03T22:10:21.445Z,25.00
2018-09-03T22:12:52.619Z,28.87
2018-09-03T22:15:22.037Z,30.33
2018-09-03T22:17:55.513Z,31.53
2018-09-03T22:20:24.929Z,31.17
2018-09-03T22:22:55.313Z,31.43
2018-09-03T22:25:24.770Z,34.97
2018-09-03T22:27:54.216Z,29.27
2018-09-03T22:30:28.117Z,34.20
2018-09-03T22:32:57.494Z,31.03
2018-09-03T22:35:27.943Z,30.73
2018-09-03T22:37:57.376Z,35.00
2018-09-03T22:40:26.753Z,35.47
2018-09-03T22:42:59.850Z,29.30
2018-09-03T22:45:29.300Z,32.33
2018-09-03T22:48:00.548Z,37.87
2018-09-03T22:50:30.053Z,31.83
2018-09-03T22:52:59.521Z,33.80
2018-09-03T22:55:31.930Z,33.13
2018-09-03T22:58:01.386Z,32.33
2018-09-03T23:00:31.083Z,34.73
2018-09-03T23:03:01.110Z,31.23
2018-09-03T23:05:30.560Z,36.53
2018-09-03T23:08:04.398Z,35.90
2018-09-03T23:10:33.814Z,31.17
2018-09-03T23:13:06.041Z,37.67
2018-09-03T23:15:35.578Z,32.50
2018-09-03T23:18:06.141Z,32.23
2018-09-03T23:20:36.049Z,34.50
2018-09-03T23:23:05.496Z,36.77
2018-09-03T23:25:39.217Z,35.43
2018-09-03T23:28:08.655Z,35.53
2018-09-03T23:30:40.489Z,35.17
2018-09-03T23:33:10.211Z,36.97
2018-09-03T23:35:39.601Z,39.50
2018-09-03T23:38:13.397Z,38.23
2018-09-03T23:40:42.852Z,40.53
2018-09-03T23:43:16.621Z,38.10
2018-09-03T23:45:46.017Z,41.80
2018-09-03T23:48:19.897Z,40.63
2018-09-03T23:50:49.372Z,43.07
2018-09-03T23:53:20.024Z,37.90
2018-09-03T23:55:49.485Z,40.20
2018-09-03T23:58:18.930Z,40.83
